sensor_id;sensor_type;location;lat;lon;timestamp;temperature;humidity
25716;DHT22;13573;50.936;4.328;2022-07-06T00:00:27;14.70;99.90
25716;DHT22;13573;50.936;4.328;2022-07-06T00:02:54;13.50;99.90
25716;DHT22;13573;50.936;4.328;2022-07-06T00:05:21;15.40;99.90
25716;DHT22;13573;50.936;4.328;2022-07-06T00:10:14;15.00;99.90
25716;DHT22;13573;50.936;4.328;2022-07-06T00:12:40;14.80;99.90
25716;DHT22;13573;50.936;4.328;2022-07-06T00:15:07;14.90;99.90
25716;DHT22;13573;50.936;4.328;2022-07-06T00:17:34;15.00;99.90
25716;DHT22;13573;50.936;4.328;2022-07-06T00:20:01;15.10;99.90
25716;DHT22;13573;50.936;4.328;2022-07-06T00:22:27;15.10;99.90
25716;DHT22;13573;50.936;4.328;2022-07-06T00:24:54;15.20;99.90
25716;DHT22;13573;50.936;4.328;2022-07-06T00:27:21;14.80;99.90
25716;DHT22;13573;50.936;4.328;2022-07-06T00:29:47;15.20;99.90
25716;DHT22;13573;50.936;4.328;2022-07-06T00:32:14;15.00;99.90
25716;DHT22;13573;50.936;4.328;2022-07-06T00:34:40;14.90;99.90
25716;DHT22;13573;50.936;4.328;2022-07-06T00:37:07;14.70;99.90
25716;DHT22;13573;50.936;4.328;2022-07-06T00:39:34;14.90;99.90
25716;DHT22;13573;50.936;4.328;2022-07-06T00:42:01;14.80;99.90
25716;DHT22;13573;50.936;4.328;2022-07-06T00:44:28;14.80;99.90
25716;DHT22;13573;50.936;4.328;2022-07-06T00:49:22;14.10;99.90
25716;DHT22;13573;50.936;4.328;2022-07-06T00:51:54;14.20;99.90
25716;DHT22;13573;50.936;4.328;2022-07-06T00:54:21;14.30;99.90
25716;DHT22;13573;50.936;4.328;2022-07-06T00:56:48;14.50;99.90
25716;DHT22;13573;50.936;4.328;2022-07-06T00:59:15;14.70;99.90
25716;DHT22;13573;50.936;4.328;2022-07-06T01:01:41;14.70;99.90
25716;DHT22;13573;50.936;4.328;2022-07-06T01:04:08;14.60;99.90
25716;DHT22;13573;50.936;4.328;2022-07-06T01:06:35;15.10;99.90
25716;DHT22;13573;50.936;4.328;2022-07-06T01:09:02;15.10;99.90
25716;DHT22;13573;50.936;4.328;2022-07-06T01:11:30;14.90;99.90
25716;DHT22;13573;50.936;4.328;2022-07-06T01:13:57;14.80;99.90
25716;DHT22;13573;50.936;4.328;2022-07-06T01:16:26;14.30;99.90
25716;DHT22;13573;50.936;4.328;2022-07-06T01:18:53;14.50;99.90
25716;DHT22;13573;50.936;4.328;2022-07-06T01:21:19;14.70;99.90
25716;DHT22;13573;50.936;4.328;2022-07-06T01:23:47;14.90;99.90
25716;DHT22;13573;50.936;4.328;2022-07-06T01:26:16;14.60;99.90
25716;DHT22;13573;50.936;4.328;2022-07-06T01:28:46;13.90;99.90
25716;DHT22;13573;50.936;4.328;2022-07-06T01:31:20;13.80;99.90
25716;DHT22;13573;50.936;4.328;2022-07-06T01:33:49;13.90;99.90
25716;DHT22;13573;50.936;4.328;2022-07-06T01:36:16;13.90;99.90
25716;DHT22;13573;50.936;4.328;2022-07-06T01:38:45;13.70;99.90
25716;DHT22;13573;50.936;4.328;2022-07-06T01:41:13;13.80;99.90
25716;DHT22;13573;50.936;4.328;2022-07-06T01:43:39;14.00;99.90
25716;DHT22;13573;50.936;4.328;2022-07-06T01:46:06;13.90;99.90
25716;DHT22;13573;50.936;4.328;2022-07-06T01:48:33;13.60;99.90
25716;DHT22;13573;50.936;4.328;2022-07-06T01:50:59;14.00;99.90
25716;DHT22;13573;50.936;4.328;2022-07-06T01:53:26;13.60;99.90
25716;DHT22;13573;50.936;4.328;2022-07-06T01:55:53;13.60;99.90
25716;DHT22;13573;50.936;4.328;2022-07-06T01:58:19;13.70;99.90
25716;DHT22;13573;50.936;4.328;2022-07-06T02:00:46;13.80;99.90
25716;DHT22;13573;50.936;4.328;2022-07-06T02:03:13;13.50;99.90
25716;DHT22;13573;50.936;4.328;2022-07-06T02:05:40;13.30;99.90
25716;DHT22;13573;50.936;4.328;2022-07-06T02:08:07;13.10;99.90
25716;DHT22;13573;50.936;4.328;2022-07-06T02:10:33;12.80;99.90
25716;DHT22;13573;50.936;4.328;2022-07-06T02:13:00;12.80;99.90
25716;DHT22;13573;50.936;4.328;2022-07-06T02:15:27;13.00;99.90
25716;DHT22;13573;50.936;4.328;2022-07-06T02:17:54;12.90;99.90
25716;DHT22;13573;50.936;4.328;2022-07-06T02:20:20;13.00;99.90
25716;DHT22;13573;50.936;4.328;2022-07-06T02:22:47;12.90;99.90
25716;DHT22;13573;50.936;4.328;2022-07-06T02:25:14;12.70;99.90
25716;DHT22;13573;50.936;4.328;2022-07-06T02:27:40;12.70;99.90
25716;DHT22;13573;50.936;4.328;2022-07-06T02:30:07;12.60;99.90
25716;DHT22;13573;50.936;4.328;2022-07-06T02:32:34;13.20;99.90
25716;DHT22;13573;50.936;4.328;2022-07-06T02:35:00;12.80;99.90
25716;DHT22;13573;50.936;4.328;2022-07-06T02:37:27;12.80;99.90
25716;DHT22;13573;50.936;4.328;2022-07-06T02:39:54;12.90;99.90
25716;DHT22;13573;50.936;4.328;2022-07-06T02:42:21;13.20;99.90
25716;DHT22;13573;50.936;4.328;2022-07-06T02:44:48;13.80;99.90
25716;DHT22;13573;50.936;4.328;2022-07-06T02:47:14;12.80;99.90
25716;DHT22;13573;50.936;4.328;2022-07-06T02:49:41;13.10;99.90
25716;DHT22;13573;50.936;4.328;2022-07-06T02:52:09;12.90;99.90
25716;DHT22;13573;50.936;4.328;2022-07-06T02:54:35;12.90;99.90
25716;DHT22;13573;50.936;4.328;2022-07-06T02:57:02;12.70;99.90
25716;DHT22;13573;50.936;4.328;2022-07-06T02:59:29;12.90;99.90
25716;DHT22;13573;50.936;4.328;2022-07-06T03:01:55;13.20;99.90
25716;DHT22;13573;50.936;4.328;2022-07-06T03:04:22;13.10;99.90
25716;DHT22;13573;50.936;4.328;2022-07-06T03:06:49;13.30;99.90
25716;DHT22;13573;50.936;4.328;2022-07-06T03:09:15;12.60;99.90
25716;DHT22;13573;50.936;4.328;2022-07-06T03:11:42;12.60;99.90
25716;DHT22;13573;50.936;4.328;2022-07-06T03:14:08;12.60;99.90
25716;DHT22;13573;50.936;4.328;2022-07-06T03:16:35;12.50;99.90
25716;DHT22;13573;50.936;4.328;2022-07-06T03:19:02;12.70;99.90
25716;DHT22;13573;50.936;4.328;2022-07-06T03:21:29;12.10;99.90
25716;DHT22;13573;50.936;4.328;2022-07-06T03:23:56;11.80;99.90
25716;DHT22;13573;50.936;4.328;2022-07-06T03:26:23;12.50;99.90
25716;DHT22;13573;50.936;4.328;2022-07-06T03:28:49;12.80;99.90
25716;DHT22;13573;50.936;4.328;2022-07-06T03:31:16;13.20;99.90
25716;DHT22;13573;50.936;4.328;2022-07-06T03:33:43;12.20;99.90
25716;DHT22;13573;50.936;4.328;2022-07-06T03:36:09;12.50;99.90
25716;DHT22;13573;50.936;4.328;2022-07-06T03:38:36;12.30;99.90
25716;DHT22;13573;50.936;4.328;2022-07-06T03:41:03;11.90;99.90
25716;DHT22;13573;50.936;4.328;2022-07-06T03:43:30;11.90;99.90
25716;DHT22;13573;50.936;4.328;2022-07-06T03:45:56;11.90;99.90
25716;DHT22;13573;50.936;4.328;2022-07-06T03:48:23;12.40;99.90
25716;DHT22;13573;50.936;4.328;2022-07-06T03:50:50;12.70;99.90
25716;DHT22;13573;50.936;4.328;2022-07-06T03:53:16;11.00;99.90
25716;DHT22;13573;50.936;4.328;2022-07-06T03:55:43;13.00;99.90
25716;DHT22;13573;50.936;4.328;2022-07-06T03:58:12;13.00;99.90
25716;DHT22;13573;50.936;4.328;2022-07-06T04:03:06;12.80;99.90
25716;DHT22;13573;50.936;4.328;2022-07-06T04:05:32;12.30;99.90
25716;DHT22;13573;50.936;4.328;2022-07-06T04:07:59;12.70;99.90
25716;DHT22;13573;50.936;4.328;2022-07-06T04:10:25;12.60;99.90
25716;DHT22;13573;50.936;4.328;2022-07-06T04:12:52;12.50;99.90
25716;DHT22;13573;50.936;4.328;2022-07-06T04:17:45;12.90;99.90
25716;DHT22;13573;50.936;4.328;2022-07-06T04:20:18;12.60;99.90
25716;DHT22;13573;50.936;4.328;2022-07-06T04:22:46;13.10;99.90
25716;DHT22;13573;50.936;4.328;2022-07-06T04:25:12;12.50;99.90
25716;DHT22;13573;50.936;4.328;2022-07-06T04:27:39;12.50;99.90
25716;DHT22;13573;50.936;4.328;2022-07-06T04:30:07;13.10;99.90
25716;DHT22;13573;50.936;4.328;2022-07-06T04:32:34;12.90;99.90
25716;DHT22;13573;50.936;4.328;2022-07-06T04:35:03;13.20;99.90
25716;DHT22;13573;50.936;4.328;2022-07-06T04:37:30;13.10;99.90
25716;DHT22;13573;50.936;4.328;2022-07-06T04:39:57;13.20;99.90
25716;DHT22;13573;50.936;4.328;2022-07-06T04:42:24;13.30;99.90
25716;DHT22;13573;50.936;4.328;2022-07-06T04:44:51;13.30;99.90
25716;DHT22;13573;50.936;4.328;2022-07-06T04:47:18;13.10;99.90
25716;DHT22;13573;50.936;4.328;2022-07-06T04:49:45;12.30;99.90
25716;DHT22;13573;50.936;4.328;2022-07-06T04:52:20;12.80;99.90
25716;DHT22;13573;50.936;4.328;2022-07-06T04:54:48;13.10;99.90
25716;DHT22;13573;50.936;4.328;2022-07-06T05:02:10;14.70;99.90
25716;DHT22;13573;50.936;4.328;2022-07-06T05:04:36;13.30;99.90
25716;DHT22;13573;50.936;4.328;2022-07-06T05:07:04;11.80;99.90
25716;DHT22;13573;50.936;4.328;2022-07-06T05:09:30;13.60;99.90
25716;DHT22;13573;50.936;4.328;2022-07-06T05:11:57;13.70;99.90
25716;DHT22;13573;50.936;4.328;2022-07-06T05:14:26;13.90;99.90
25716;DHT22;13573;50.936;4.328;2022-07-06T05:16:55;14.10;99.90
25716;DHT22;13573;50.936;4.328;2022-07-06T05:19:22;13.50;99.90
25716;DHT22;13573;50.936;4.328;2022-07-06T05:21:50;13.70;99.90
25716;DHT22;13573;50.936;4.328;2022-07-06T05:24:18;14.10;99.90
25716;DHT22;13573;50.936;4.328;2022-07-06T05:26:46;14.10;99.90
25716;DHT22;13573;50.936;4.328;2022-07-06T05:29:14;14.50;99.90
25716;DHT22;13573;50.936;4.328;2022-07-06T05:31:40;15.00;99.90
25716;DHT22;13573;50.936;4.328;2022-07-06T05:34:09;15.10;99.90
25716;DHT22;13573;50.936;4.328;2022-07-06T05:36:37;15.80;99.90
25716;DHT22;13573;50.936;4.328;2022-07-06T05:39:04;15.70;99.90
25716;DHT22;13573;50.936;4.328;2022-07-06T05:41:30;16.00;99.90
25716;DHT22;13573;50.936;4.328;2022-07-06T05:43:57;16.10;99.90
25716;DHT22;13573;50.936;4.328;2022-07-06T05:46:24;16.40;99.90
25716;DHT22;13573;50.936;4.328;2022-07-06T05:48:51;17.00;99.90
25716;DHT22;13573;50.936;4.328;2022-07-06T05:51:23;17.20;99.90
25716;DHT22;13573;50.936;4.328;2022-07-06T05:53:50;17.00;99.90
25716;DHT22;13573;50.936;4.328;2022-07-06T05:56:18;17.80;99.90
25716;DHT22;13573;50.936;4.328;2022-07-06T05:58:45;18.00;99.90
25716;DHT22;13573;50.936;4.328;2022-07-06T06:01:12;18.10;99.90
25716;DHT22;13573;50.936;4.328;2022-07-06T06:03:38;17.90;99.90
25716;DHT22;13573;50.936;4.328;2022-07-06T06:06:05;18.00;99.90
25716;DHT22;13573;50.936;4.328;2022-07-06T06:08:31;18.70;99.90
25716;DHT22;13573;50.936;4.328;2022-07-06T06:10:58;18.20;99.90
25716;DHT22;13573;50.936;4.328;2022-07-06T06:13:25;18.20;99.90
25716;DHT22;13573;50.936;4.328;2022-07-06T06:15:51;18.00;99.90
25716;DHT22;13573;50.936;4.328;2022-07-06T06:18:18;17.70;99.90
25716;DHT22;13573;50.936;4.328;2022-07-06T06:20:45;18.00;99.90
25716;DHT22;13573;50.936;4.328;2022-07-06T06:23:13;17.90;99.90
25716;DHT22;13573;50.936;4.328;2022-07-06T06:25:42;18.60;99.90
25716;DHT22;13573;50.936;4.328;2022-07-06T06:28:10;18.40;99.90
25716;DHT22;13573;50.936;4.328;2022-07-06T06:30:37;17.20;99.90
25716;DHT22;13573;50.936;4.328;2022-07-06T06:33:08;19.10;99.90
25716;DHT22;13573;50.936;4.328;2022-07-06T06:35:35;19.00;99.90
25716;DHT22;13573;50.936;4.328;2022-07-06T06:38:02;20.60;99.90
25716;DHT22;13573;50.936;4.328;2022-07-06T06:40:29;20.90;99.90
25716;DHT22;13573;50.936;4.328;2022-07-06T06:42:56;21.30;99.90
25716;DHT22;13573;50.936;4.328;2022-07-06T06:45:23;21.60;99.90
25716;DHT22;13573;50.936;4.328;2022-07-06T06:47:50;21.20;99.90
25716;DHT22;13573;50.936;4.328;2022-07-06T06:50:16;21.30;99.90
25716;DHT22;13573;50.936;4.328;2022-07-06T06:52:43;21.20;99.90
25716;DHT22;13573;50.936;4.328;2022-07-06T06:55:10;21.30;99.90
25716;DHT22;13573;50.936;4.328;2022-07-06T06:57:37;21.00;99.90
25716;DHT22;13573;50.936;4.328;2022-07-06T07:00:06;21.20;99.90
25716;DHT22;13573;50.936;4.328;2022-07-06T07:02:33;20.50;99.90
25716;DHT22;13573;50.936;4.328;2022-07-06T07:05:00;20.60;99.90
25716;DHT22;13573;50.936;4.328;2022-07-06T07:07:27;21.10;99.90
25716;DHT22;13573;50.936;4.328;2022-07-06T07:09:55;22.90;99.90
25716;DHT22;13573;50.936;4.328;2022-07-06T07:12:22;21.80;99.90
25716;DHT22;13573;50.936;4.328;2022-07-06T07:14:48;22.20;99.90
25716;DHT22;13573;50.936;4.328;2022-07-06T07:17:16;23.80;99.90
25716;DHT22;13573;50.936;4.328;2022-07-06T07:19:43;22.90;99.90
25716;DHT22;13573;50.936;4.328;2022-07-06T07:22:10;23.60;99.90
25716;DHT22;13573;50.936;4.328;2022-07-06T07:24:40;23.60;99.90
25716;DHT22;13573;50.936;4.328;2022-07-06T07:27:07;23.40;99.90
25716;DHT22;13573;50.936;4.328;2022-07-06T07:29:35;23.00;99.90
25716;DHT22;13573;50.936;4.328;2022-07-06T07:32:03;21.90;99.90
25716;DHT22;13573;50.936;4.328;2022-07-06T07:34:32;23.70;99.90
25716;DHT22;13573;50.936;4.328;2022-07-06T07:36:59;23.30;99.90
25716;DHT22;13573;50.936;4.328;2022-07-06T07:39:29;22.70;99.90
25716;DHT22;13573;50.936;4.328;2022-07-06T07:41:56;24.30;99.90
25716;DHT22;13573;50.936;4.328;2022-07-06T07:44:26;24.80;99.90
25716;DHT22;13573;50.936;4.328;2022-07-06T07:46:53;24.50;99.90
25716;DHT22;13573;50.936;4.328;2022-07-06T07:49:20;25.00;99.90
25716;DHT22;13573;50.936;4.328;2022-07-06T07:51:50;24.20;99.90
25716;DHT22;13573;50.936;4.328;2022-07-06T07:54:19;24.50;99.90
25716;DHT22;13573;50.936;4.328;2022-07-06T07:56:45;25.20;99.90
25716;DHT22;13573;50.936;4.328;2022-07-06T07:59:12;25.60;99.90
25716;DHT22;13573;50.936;4.328;2022-07-06T08:01:40;24.20;99.90
25716;DHT22;13573;50.936;4.328;2022-07-06T08:04:07;25.50;99.90
25716;DHT22;13573;50.936;4.328;2022-07-06T08:06:34;25.80;99.90
25716;DHT22;13573;50.936;4.328;2022-07-06T08:09:01;26.40;99.90
25716;DHT22;13573;50.936;4.328;2022-07-06T08:11:31;25.50;99.90
25716;DHT22;13573;50.936;4.328;2022-07-06T08:13:58;26.30;99.90
25716;DHT22;13573;50.936;4.328;2022-07-06T08:16:25;25.20;99.90
25716;DHT22;13573;50.936;4.328;2022-07-06T08:18:51;26.70;99.90
25716;DHT22;13573;50.936;4.328;2022-07-06T08:21:18;26.80;99.90
25716;DHT22;13573;50.936;4.328;2022-07-06T08:23:45;26.30;99.90
25716;DHT22;13573;50.936;4.328;2022-07-06T08:26:12;26.60;99.90
25716;DHT22;13573;50.936;4.328;2022-07-06T08:28:40;26.60;99.90
25716;DHT22;13573;50.936;4.328;2022-07-06T08:31:07;24.50;99.90
25716;DHT22;13573;50.936;4.328;2022-07-06T08:33:33;26.30;99.90
25716;DHT22;13573;50.936;4.328;2022-07-06T08:36:02;26.40;99.90
25716;DHT22;13573;50.936;4.328;2022-07-06T08:38:29;26.50;99.90
25716;DHT22;13573;50.936;4.328;2022-07-06T08:40:56;27.30;98.90
25716;DHT22;13573;50.936;4.328;2022-07-06T08:43:23;26.70;99.90
25716;DHT22;13573;50.936;4.328;2022-07-06T08:45:53;27.30;99.00
25716;DHT22;13573;50.936;4.328;2022-07-06T08:48:22;26.70;99.90
25716;DHT22;13573;50.936;4.328;2022-07-06T08:50:49;28.10;99.90
25716;DHT22;13573;50.936;4.328;2022-07-06T08:53:17;28.00;99.60
25716;DHT22;13573;50.936;4.328;2022-07-06T08:55:44;28.00;99.90
25716;DHT22;13573;50.936;4.328;2022-07-06T08:58:11;27.30;99.90
25716;DHT22;13573;50.936;4.328;2022-07-06T09:00:38;26.30;99.90
25716;DHT22;13573;50.936;4.328;2022-07-06T09:03:07;26.50;99.90
25716;DHT22;13573;50.936;4.328;2022-07-06T09:05:37;26.60;99.90
25716;DHT22;13573;50.936;4.328;2022-07-06T09:08:04;26.80;99.90
25716;DHT22;13573;50.936;4.328;2022-07-06T09:10:30;27.40;99.90
25716;DHT22;13573;50.936;4.328;2022-07-06T09:13:05;27.20;99.90
25716;DHT22;13573;50.936;4.328;2022-07-06T09:15:33;26.10;99.90
25716;DHT22;13573;50.936;4.328;2022-07-06T09:18:02;26.00;99.90
25716;DHT22;13573;50.936;4.328;2022-07-06T09:20:31;27.90;98.20
25716;DHT22;13573;50.936;4.328;2022-07-06T09:23:00;26.20;99.90
25716;DHT22;13573;50.936;4.328;2022-07-06T09:25:27;27.50;99.90
25716;DHT22;13573;50.936;4.328;2022-07-06T09:27:58;28.00;99.90
25716;DHT22;13573;50.936;4.328;2022-07-06T09:30:26;28.80;99.30
25716;DHT22;13573;50.936;4.328;2022-07-06T09:32:56;28.50;98.90
25716;DHT22;13573;50.936;4.328;2022-07-06T09:35:29;28.90;98.70
25716;DHT22;13573;50.936;4.328;2022-07-06T09:38:08;29.20;96.60
25716;DHT22;13573;50.936;4.328;2022-07-06T09:40:37;28.80;98.80
25716;DHT22;13573;50.936;4.328;2022-07-06T09:43:12;30.50;99.40
25716;DHT22;13573;50.936;4.328;2022-07-06T09:45:43;28.90;98.50
25716;DHT22;13573;50.936;4.328;2022-07-06T09:48:14;28.90;98.00
25716;DHT22;13573;50.936;4.328;2022-07-06T09:50:45;29.30;97.60
25716;DHT22;13573;50.936;4.328;2022-07-06T09:53:13;28.60;97.30
25716;DHT22;13573;50.936;4.328;2022-07-06T09:55:45;28.30;98.40
25716;DHT22;13573;50.936;4.328;2022-07-06T09:58:14;27.60;99.20
25716;DHT22;13573;50.936;4.328;2022-07-06T10:00:45;27.90;98.40
25716;DHT22;13573;50.936;4.328;2022-07-06T10:05:44;26.70;98.20
25716;DHT22;13573;50.936;4.328;2022-07-06T10:08:14;28.40;96.00
25716;DHT22;13573;50.936;4.328;2022-07-06T10:10:42;28.60;99.30
25716;DHT22;13573;50.936;4.328;2022-07-06T10:13:11;27.40;99.00
25716;DHT22;13573;50.936;4.328;2022-07-06T10:15:39;28.60;98.30
25716;DHT22;13573;50.936;4.328;2022-07-06T10:20:38;29.50;96.80
25716;DHT22;13573;50.936;4.328;2022-07-06T10:23:07;27.80;97.80
25716;DHT22;13573;50.936;4.328;2022-07-06T10:25:35;27.70;98.50
25716;DHT22;13573;50.936;4.328;2022-07-06T10:28:02;27.40;98.40
25716;DHT22;13573;50.936;4.328;2022-07-06T10:30:30;28.20;98.20
25716;DHT22;13573;50.936;4.328;2022-07-06T10:32:58;26.90;97.90
25716;DHT22;13573;50.936;4.328;2022-07-06T10:35:26;27.10;98.80
25716;DHT22;13573;50.936;4.328;2022-07-06T10:38:03;27.60;96.50
25716;DHT22;13573;50.936;4.328;2022-07-06T10:40:33;27.30;99.10
25716;DHT22;13573;50.936;4.328;2022-07-06T10:43:08;27.70;99.00
25716;DHT22;13573;50.936;4.328;2022-07-06T10:48:18;27.20;96.30
25716;DHT22;13573;50.936;4.328;2022-07-06T10:50:51;28.20;98.40
25716;DHT22;13573;50.936;4.328;2022-07-06T10:55:54;28.20;98.00
25716;DHT22;13573;50.936;4.328;2022-07-06T11:00:59;28.50;97.30
25716;DHT22;13573;50.936;4.328;2022-07-06T11:03:35;27.90;95.80
25716;DHT22;13573;50.936;4.328;2022-07-06T11:06:08;30.10;96.10
25716;DHT22;13573;50.936;4.328;2022-07-06T11:08:50;29.90;95.50
25716;DHT22;13573;50.936;4.328;2022-07-06T11:13:54;29.50;96.00
25716;DHT22;13573;50.936;4.328;2022-07-06T11:16:24;29.10;96.40
25716;DHT22;13573;50.936;4.328;2022-07-06T11:21:37;27.80;97.90
25716;DHT22;13573;50.936;4.328;2022-07-06T11:24:06;28.60;97.30
25716;DHT22;13573;50.936;4.328;2022-07-06T11:26:34;28.20;96.90
25716;DHT22;13573;50.936;4.328;2022-07-06T11:29:06;27.20;96.60
25716;DHT22;13573;50.936;4.328;2022-07-06T11:31:35;27.50;96.50
25716;DHT22;13573;50.936;4.328;2022-07-06T11:36:31;28.90;97.20
25716;DHT22;13573;50.936;4.328;2022-07-06T11:38:58;28.90;97.40
25716;DHT22;13573;50.936;4.328;2022-07-06T11:41:25;28.40;97.60
25716;DHT22;13573;50.936;4.328;2022-07-06T11:43:52;28.60;97.40
25716;DHT22;13573;50.936;4.328;2022-07-06T11:46:21;28.80;95.10
25716;DHT22;13573;50.936;4.328;2022-07-06T11:51:17;29.00;94.10
25716;DHT22;13573;50.936;4.328;2022-07-06T11:53:45;27.90;95.00
25716;DHT22;13573;50.936;4.328;2022-07-06T11:56:14;27.20;98.20
25716;DHT22;13573;50.936;4.328;2022-07-06T11:58:42;27.40;98.20
25716;DHT22;13573;50.936;4.328;2022-07-06T12:01:13;27.70;97.70
25716;DHT22;13573;50.936;4.328;2022-07-06T12:03:41;27.10;98.00
25716;DHT22;13573;50.936;4.328;2022-07-06T12:06:15;27.40;95.50
25716;DHT22;13573;50.936;4.328;2022-07-06T12:08:47;26.90;99.00
25716;DHT22;13573;50.936;4.328;2022-07-06T12:11:25;27.10;99.10
25716;DHT22;13573;50.936;4.328;2022-07-06T12:16:21;28.00;97.60
25716;DHT22;13573;50.936;4.328;2022-07-06T12:18:50;27.50;97.40
25716;DHT22;13573;50.936;4.328;2022-07-06T12:21:19;28.40;97.60
25716;DHT22;13573;50.936;4.328;2022-07-06T12:26:18;28.20;96.20
25716;DHT22;13573;50.936;4.328;2022-07-06T12:33:57;28.50;96.90
25716;DHT22;13573;50.936;4.328;2022-07-06T12:36:24;28.20;97.30
25716;DHT22;13573;50.936;4.328;2022-07-06T12:38:51;28.60;96.10
25716;DHT22;13573;50.936;4.328;2022-07-06T12:41:34;27.30;96.10
25716;DHT22;13573;50.936;4.328;2022-07-06T12:44:05;27.90;96.40
25716;DHT22;13573;50.936;4.328;2022-07-06T12:46:36;28.60;93.80
25716;DHT22;13573;50.936;4.328;2022-07-06T12:49:11;26.90;96.80
25716;DHT22;13573;50.936;4.328;2022-07-06T12:52:20;28.50;94.20
25716;DHT22;13573;50.936;4.328;2022-07-06T12:54:34;27.70;96.70
25716;DHT22;13573;50.936;4.328;2022-07-06T12:57:09;27.60;96.30
25716;DHT22;13573;50.936;4.328;2022-07-06T12:59:41;26.20;96.80
25716;DHT22;13573;50.936;4.328;2022-07-06T13:02:18;27.00;97.00
25716;DHT22;13573;50.936;4.328;2022-07-06T13:04:54;26.70;96.60
25716;DHT22;13573;50.936;4.328;2022-07-06T13:07:22;28.20;94.40
25716;DHT22;13573;50.936;4.328;2022-07-06T13:09:48;26.20;96.90
25716;DHT22;13573;50.936;4.328;2022-07-06T13:12:15;27.40;97.30
25716;DHT22;13573;50.936;4.328;2022-07-06T13:14:41;27.70;97.10
25716;DHT22;13573;50.936;4.328;2022-07-06T13:17:08;27.90;94.30
25716;DHT22;13573;50.936;4.328;2022-07-06T13:19:35;28.30;96.00
25716;DHT22;13573;50.936;4.328;2022-07-06T13:22:01;28.60;93.90
25716;DHT22;13573;50.936;4.328;2022-07-06T13:24:28;28.40;96.20
25716;DHT22;13573;50.936;4.328;2022-07-06T13:26:56;29.00;93.40
25716;DHT22;13573;50.936;4.328;2022-07-06T13:29:23;29.40;95.70
25716;DHT22;13573;50.936;4.328;2022-07-06T13:31:50;29.40;95.50
25716;DHT22;13573;50.936;4.328;2022-07-06T13:34:18;29.50;95.30
25716;DHT22;13573;50.936;4.328;2022-07-06T13:36:45;29.50;95.00
25716;DHT22;13573;50.936;4.328;2022-07-06T13:39:12;29.30;95.10
25716;DHT22;13573;50.936;4.328;2022-07-06T13:41:38;29.50;93.00
25716;DHT22;13573;50.936;4.328;2022-07-06T13:44:05;28.60;95.70
25716;DHT22;13573;50.936;4.328;2022-07-06T13:46:33;26.30;95.40
25716;DHT22;13573;50.936;4.328;2022-07-06T13:49:00;28.00;96.10
25716;DHT22;13573;50.936;4.328;2022-07-06T13:51:26;29.10;96.90
25716;DHT22;13573;50.936;4.328;2022-07-06T13:53:55;28.80;93.60
25716;DHT22;13573;50.936;4.328;2022-07-06T13:56:21;28.90;95.90
25716;DHT22;13573;50.936;4.328;2022-07-06T13:58:48;29.20;95.70
25716;DHT22;13573;50.936;4.328;2022-07-06T14:01:15;28.90;95.30
25716;DHT22;13573;50.936;4.328;2022-07-06T14:03:42;28.90;95.80
25716;DHT22;13573;50.936;4.328;2022-07-06T14:06:09;28.90;95.90
25716;DHT22;13573;50.936;4.328;2022-07-06T14:08:38;27.40;95.40
25716;DHT22;13573;50.936;4.328;2022-07-06T14:11:07;28.40;96.10
25716;DHT22;13573;50.936;4.328;2022-07-06T14:13:35;28.70;93.30
25716;DHT22;13573;50.936;4.328;2022-07-06T14:16:02;28.20;93.80
25716;DHT22;13573;50.936;4.328;2022-07-06T14:18:30;27.30;97.00
25716;DHT22;13573;50.936;4.328;2022-07-06T14:20:56;28.00;94.40
25716;DHT22;13573;50.936;4.328;2022-07-06T14:23:24;27.70;94.10
25716;DHT22;13573;50.936;4.328;2022-07-06T14:25:51;27.60;94.60
25716;DHT22;13573;50.936;4.328;2022-07-06T14:28:20;27.70;94.40
25716;DHT22;13573;50.936;4.328;2022-07-06T14:30:47;27.70;94.90
25716;DHT22;13573;50.936;4.328;2022-07-06T14:33:14;27.90;94.90
25716;DHT22;13573;50.936;4.328;2022-07-06T14:35:43;26.90;98.30
25716;DHT22;13573;50.936;4.328;2022-07-06T14:38:10;27.30;94.90
25716;DHT22;13573;50.936;4.328;2022-07-06T14:40:38;27.00;95.40
25716;DHT22;13573;50.936;4.328;2022-07-06T14:43:05;27.10;98.90
25716;DHT22;13573;50.936;4.328;2022-07-06T14:45:33;25.60;98.30
25716;DHT22;13573;50.936;4.328;2022-07-06T14:48:00;25.90;97.70
25716;DHT22;13573;50.936;4.328;2022-07-06T14:50:29;26.90;97.90
25716;DHT22;13573;50.936;4.328;2022-07-06T14:52:57;26.20;98.10
25716;DHT22;13573;50.936;4.328;2022-07-06T14:55:25;27.70;98.70
25716;DHT22;13573;50.936;4.328;2022-07-06T14:57:52;27.90;98.20
25716;DHT22;13573;50.936;4.328;2022-07-06T15:00:21;27.60;97.90
25716;DHT22;13573;50.936;4.328;2022-07-06T15:05:15;27.70;98.20
25716;DHT22;13573;50.936;4.328;2022-07-06T15:07:43;27.70;98.10
25716;DHT22;13573;50.936;4.328;2022-07-06T15:10:11;28.30;98.30
25716;DHT22;13573;50.936;4.328;2022-07-06T15:12:37;28.30;98.00
25716;DHT22;13573;50.936;4.328;2022-07-06T15:15:05;28.10;98.00
25716;DHT22;13573;50.936;4.328;2022-07-06T15:17:32;27.50;98.00
25716;DHT22;13573;50.936;4.328;2022-07-06T15:19:59;26.00;97.30
25716;DHT22;13573;50.936;4.328;2022-07-06T15:22:27;27.70;98.20
25716;DHT22;13573;50.936;4.328;2022-07-06T15:24:55;26.60;98.10
25716;DHT22;13573;50.936;4.328;2022-07-06T15:27:22;27.00;95.40
25716;DHT22;13573;50.936;4.328;2022-07-06T15:29:48;28.20;99.10
25716;DHT22;13573;50.936;4.328;2022-07-06T15:32:15;26.50;99.00
25716;DHT22;13573;50.936;4.328;2022-07-06T15:34:42;26.70;99.10
25716;DHT22;13573;50.936;4.328;2022-07-06T15:39:35;26.80;99.00
25716;DHT22;13573;50.936;4.328;2022-07-06T15:42:02;27.20;99.10
25716;DHT22;13573;50.936;4.328;2022-07-06T15:44:28;26.80;99.40
25716;DHT22;13573;50.936;4.328;2022-07-06T15:46:55;26.70;98.10
25716;DHT22;13573;50.936;4.328;2022-07-06T15:51:48;26.70;99.20
25716;DHT22;13573;50.936;4.328;2022-07-06T15:54:15;27.20;99.40
25716;DHT22;13573;50.936;4.328;2022-07-06T15:56:43;25.60;99.50
25716;DHT22;13573;50.936;4.328;2022-07-06T15:59:10;26.80;99.90
25716;DHT22;13573;50.936;4.328;2022-07-06T16:01:36;25.60;99.90
25716;DHT22;13573;50.936;4.328;2022-07-06T16:06:30;26.10;99.90
25716;DHT22;13573;50.936;4.328;2022-07-06T16:08:57;26.50;99.60
25716;DHT22;13573;50.936;4.328;2022-07-06T16:11:23;28.50;99.90
25716;DHT22;13573;50.936;4.328;2022-07-06T16:13:50;26.30;99.30
25716;DHT22;13573;50.936;4.328;2022-07-06T16:16:17;26.10;99.30
25716;DHT22;13573;50.936;4.328;2022-07-06T16:18:43;26.70;96.30
25716;DHT22;13573;50.936;4.328;2022-07-06T16:21:10;26.80;96.50
25716;DHT22;13573;50.936;4.328;2022-07-06T16:23:38;26.20;99.50
25716;DHT22;13573;50.936;4.328;2022-07-06T16:26:06;26.40;99.60
25716;DHT22;13573;50.936;4.328;2022-07-06T16:28:34;25.10;98.90
25716;DHT22;13573;50.936;4.328;2022-07-06T16:33:29;27.10;99.90